sensor_id;sensor_type;location;lat;lon;timestamp;P1;durP1;ratioP1;P2;durP2;ratioP2
56242;SDS011;42155;53.096;23.226;2023-05-10T00:00:15;49.47;;;15.45;;
56242;SDS011;42155;53.096;23.226;2023-05-10T00:02:15;50.58;;;15.48;;
56242;SDS011;42155;53.096;23.226;2023-05-10T00:04:15;46.92;;;16.85;;
56242;SDS011;42155;53.096;23.226;2023-05-10T00:06:16;53.92;;;18.83;;
56242;SDS011;42155;53.096;23.226;2023-05-10T00:08:16;53.40;;;17.65;;
56242;SDS011;42155;53.096;23.226;2023-05-10T00:10:17;51.47;;;17.40;;
56242;SDS011;42155;53.096;23.226;2023-05-10T00:12:17;43.63;;;15.80;;
56242;SDS011;42155;53.096;23.226;2023-05-10T00:14:17;46.42;;;14.90;;
56242;SDS011;42155;53.096;23.226;2023-05-10T00:16:18;34.10;;;13.95;;
56242;SDS011;42155;53.096;23.226;2023-05-10T00:18:18;36.00;;;12.27;;
56242;SDS011;42155;53.096;23.226;2023-05-10T00:20:18;31.42;;;11.80;;
56242;SDS011;42155;53.096;23.226;2023-05-10T00:22:19;29.70;;;10.93;;
56242;SDS011;42155;53.096;23.226;2023-05-10T00:24:19;32.03;;;10.82;;
56242;SDS011;42155;53.096;23.226;2023-05-10T00:26:19;23.17;;;9.43;;
56242;SDS011;42155;53.096;23.226;2023-05-10T00:28:20;24.23;;;9.73;;
56242;SDS011;42155;53.096;23.226;2023-05-10T00:30:20;19.10;;;7.97;;
56242;SDS011;42155;53.096;23.226;2023-05-10T00:32:21;17.80;;;8.07;;
56242;SDS011;42155;53.096;23.226;2023-05-10T00:34:21;19.10;;;8.15;;
56242;SDS011;42155;53.096;23.226;2023-05-10T00:36:21;18.50;;;8.02;;
56242;SDS011;42155;53.096;23.226;2023-05-10T00:38:22;15.80;;;7.47;;
56242;SDS011;42155;53.096;23.226;2023-05-10T00:40:22;15.15;;;7.00;;
56242;SDS011;42155;53.096;23.226;2023-05-10T00:42:22;16.73;;;7.07;;
56242;SDS011;42155;53.096;23.226;2023-05-10T00:44:23;16.95;;;7.15;;
56242;SDS011;42155;53.096;23.226;2023-05-10T00:46:23;16.55;;;6.95;;
56242;SDS011;42155;53.096;23.226;2023-05-10T00:48:24;16.27;;;7.32;;
56242;SDS011;42155;53.096;23.226;2023-05-10T00:50:24;16.42;;;7.53;;
56242;SDS011;42155;53.096;23.226;2023-05-10T00:52:25;23.08;;;8.38;;
56242;SDS011;42155;53.096;23.226;2023-05-10T00:54:26;15.90;;;7.05;;
56242;SDS011;42155;53.096;23.226;2023-05-10T00:56:26;17.38;;;7.57;;
56242;SDS011;42155;53.096;23.226;2023-05-10T00:58:27;13.57;;;7.38;;
56242;SDS011;42155;53.096;23.226;2023-05-10T01:00:28;15.38;;;7.25;;
56242;SDS011;42155;53.096;23.226;2023-05-10T01:02:28;18.70;;;6.82;;
56242;SDS011;42155;53.096;23.226;2023-05-10T01:04:28;18.58;;;6.90;;
56242;SDS011;42155;53.096;23.226;2023-05-10T01:06:29;14.85;;;6.13;;
56242;SDS011;42155;53.096;23.226;2023-05-10T01:08:30;12.48;;;6.07;;
56242;SDS011;42155;53.096;23.226;2023-05-10T01:10:30;13.40;;;6.55;;
56242;SDS011;42155;53.096;23.226;2023-05-10T01:12:31;11.43;;;5.75;;
56242;SDS011;42155;53.096;23.226;2023-05-10T01:14:34;15.63;;;6.53;;
56242;SDS011;42155;53.096;23.226;2023-05-10T01:16:38;10.93;;;5.40;;
56242;SDS011;42155;53.096;23.226;2023-05-10T01:18:40;17.65;;;6.30;;
56242;SDS011;42155;53.096;23.226;2023-05-10T01:20:43;13.65;;;5.90;;
56242;SDS011;42155;53.096;23.226;2023-05-10T01:26:05;12.20;;;6.00;;
56242;SDS011;42155;53.096;23.226;2023-05-10T01:32:56;11.00;;;5.32;;
56242;SDS011;42155;53.096;23.226;2023-05-10T01:35:37;12.75;;;6.07;;
56242;SDS011;42155;53.096;23.226;2023-05-10T01:37:51;10.90;;;5.72;;
56242;SDS011;42155;53.096;23.226;2023-05-10T01:40:09;14.27;;;5.78;;
56242;SDS011;42155;53.096;23.226;2023-05-10T01:42:25;12.65;;;5.82;;
56242;SDS011;42155;53.096;23.226;2023-05-10T01:46:57;10.40;;;5.55;;
56242;SDS011;42155;53.096;23.226;2023-05-10T01:49:07;13.20;;;5.68;;
56242;SDS011;42155;53.096;23.226;2023-05-10T01:51:11;11.65;;;5.38;;
56242;SDS011;42155;53.096;23.226;2023-05-10T01:53:12;11.60;;;5.90;;
56242;SDS011;42155;53.096;23.226;2023-05-10T01:55:18;13.70;;;6.00;;
56242;SDS011;42155;53.096;23.226;2023-05-10T01:57:21;14.80;;;5.95;;
56242;SDS011;42155;53.096;23.226;2023-05-10T01:59:26;10.75;;;5.68;;
56242;SDS011;42155;53.096;23.226;2023-05-10T02:01:29;12.88;;;5.95;;
56242;SDS011;42155;53.096;23.226;2023-05-10T02:03:30;13.80;;;6.15;;
56242;SDS011;42155;53.096;23.226;2023-05-10T02:05:34;17.95;;;6.43;;
56242;SDS011;42155;53.096;23.226;2023-05-10T02:07:36;13.45;;;6.15;;
56242;SDS011;42155;53.096;23.226;2023-05-10T02:09:37;13.70;;;6.20;;
56242;SDS011;42155;53.096;23.226;2023-05-10T02:11:38;17.67;;;6.78;;
56242;SDS011;42155;53.096;23.226;2023-05-10T02:13:41;14.85;;;6.63;;
56242;SDS011;42155;53.096;23.226;2023-05-10T02:15:42;13.02;;;5.78;;
56242;SDS011;42155;53.096;23.226;2023-05-10T02:17:43;12.55;;;6.13;;
56242;SDS011;42155;53.096;23.226;2023-05-10T02:19:46;11.20;;;5.45;;
56242;SDS011;42155;53.096;23.226;2023-05-10T02:21:47;9.40;;;5.03;;
56242;SDS011;42155;53.096;23.226;2023-05-10T02:23:50;13.63;;;5.63;;
56242;SDS011;42155;53.096;23.226;2023-05-10T02:25:52;9.60;;;5.03;;
56242;SDS011;42155;53.096;23.226;2023-05-10T02:27:55;21.02;;;6.30;;
56242;SDS011;42155;53.096;23.226;2023-05-10T02:29:56;13.75;;;7.30;;
56242;SDS011;42155;53.096;23.226;2023-05-10T02:31:58;16.10;;;6.53;;
56242;SDS011;42155;53.096;23.226;2023-05-10T02:33:59;12.40;;;6.70;;
56242;SDS011;42155;53.096;23.226;2023-05-10T02:36:01;14.88;;;6.93;;
56242;SDS011;42155;53.096;23.226;2023-05-10T02:38:02;12.75;;;6.40;;
56242;SDS011;42155;53.096;23.226;2023-05-10T02:40:05;12.63;;;6.47;;
56242;SDS011;42155;53.096;23.226;2023-05-10T02:42:07;12.65;;;6.57;;
56242;SDS011;42155;53.096;23.226;2023-05-10T02:44:08;13.07;;;5.65;;
56242;SDS011;42155;53.096;23.226;2023-05-10T02:46:10;12.30;;;6.20;;
56242;SDS011;42155;53.096;23.226;2023-05-10T02:48:10;10.80;;;5.25;;
56242;SDS011;42155;53.096;23.226;2023-05-10T02:50:11;13.13;;;5.18;;
56242;SDS011;42155;53.096;23.226;2023-05-10T02:52:11;11.40;;;5.20;;
56242;SDS011;42155;53.096;23.226;2023-05-10T02:54:20;18.17;;;5.43;;
56242;SDS011;42155;53.096;23.226;2023-05-10T02:56:31;14.35;;;5.60;;
56242;SDS011;42155;53.096;23.226;2023-05-10T02:58:34;9.85;;;5.15;;
56242;SDS011;42155;53.096;23.226;2023-05-10T03:00:34;12.85;;;5.43;;
56242;SDS011;42155;53.096;23.226;2023-05-10T03:02:34;15.75;;;5.60;;
56242;SDS011;42155;53.096;23.226;2023-05-10T03:04:35;12.80;;;5.43;;
56242;SDS011;42155;53.096;23.226;2023-05-10T03:06:35;12.13;;;5.20;;
56242;SDS011;42155;53.096;23.226;2023-05-10T03:08:36;15.80;;;5.00;;
56242;SDS011;42155;53.096;23.226;2023-05-10T03:13:13;9.63;;;5.13;;
56242;SDS011;42155;53.096;23.226;2023-05-10T03:17:49;10.88;;;4.80;;
56242;SDS011;42155;53.096;23.226;2023-05-10T03:19:56;8.80;;;4.78;;
56242;SDS011;42155;53.096;23.226;2023-05-10T03:21:59;10.88;;;5.22;;
56242;SDS011;42155;53.096;23.226;2023-05-10T03:24:05;13.63;;;4.95;;
56242;SDS011;42155;53.096;23.226;2023-05-10T03:26:07;12.35;;;5.03;;
56242;SDS011;42155;53.096;23.226;2023-05-10T03:28:08;12.45;;;4.85;;
56242;SDS011;42155;53.096;23.226;2023-05-10T03:30:10;12.20;;;5.00;;
56242;SDS011;42155;53.096;23.226;2023-05-10T03:32:12;13.18;;;4.13;;
56242;SDS011;42155;53.096;23.226;2023-05-10T03:34:12;15.65;;;5.45;;
56242;SDS011;42155;53.096;23.226;2023-05-10T03:36:13;13.77;;;5.43;;
56242;SDS011;42155;53.096;23.226;2023-05-10T03:38:13;14.40;;;5.30;;
56242;SDS011;42155;53.096;23.226;2023-05-10T03:40:14;10.57;;;4.57;;
56242;SDS011;42155;53.096;23.226;2023-05-10T03:42:14;23.70;;;5.25;;
56242;SDS011;42155;53.096;23.226;2023-05-10T03:44:14;10.82;;;4.88;;
56242;SDS011;42155;53.096;23.226;2023-05-10T03:46:15;13.02;;;5.13;;
56242;SDS011;42155;53.096;23.226;2023-05-10T03:48:15;11.95;;;5.28;;
56242;SDS011;42155;53.096;23.226;2023-05-10T03:50:15;13.77;;;5.78;;
56242;SDS011;42155;53.096;23.226;2023-05-10T03:52:16;13.25;;;5.53;;
56242;SDS011;42155;53.096;23.226;2023-05-10T03:54:16;19.55;;;6.00;;
56242;SDS011;42155;53.096;23.226;2023-05-10T03:56:16;18.05;;;5.95;;
56242;SDS011;42155;53.096;23.226;2023-05-10T03:58:17;15.73;;;6.20;;
56242;SDS011;42155;53.096;23.226;2023-05-10T04:00:17;11.50;;;6.10;;
56242;SDS011;42155;53.096;23.226;2023-05-10T04:02:18;16.65;;;6.18;;
56242;SDS011;42155;53.096;23.226;2023-05-10T04:04:18;23.40;;;6.53;;
56242;SDS011;42155;53.096;23.226;2023-05-10T04:06:19;17.23;;;6.60;;
56242;SDS011;42155;53.096;23.226;2023-05-10T04:08:19;19.13;;;7.32;;
56242;SDS011;42155;53.096;23.226;2023-05-10T04:10:19;24.35;;;6.82;;
56242;SDS011;42155;53.096;23.226;2023-05-10T04:12:20;20.83;;;7.30;;
56242;SDS011;42155;53.096;23.226;2023-05-10T04:14:20;18.92;;;6.18;;
56242;SDS011;42155;53.096;23.226;2023-05-10T04:16:20;16.48;;;6.07;;
56242;SDS011;42155;53.096;23.226;2023-05-10T04:18:21;20.13;;;5.80;;
56242;SDS011;42155;53.096;23.226;2023-05-10T04:20:21;17.20;;;5.70;;
56242;SDS011;42155;53.096;23.226;2023-05-10T04:22:21;14.43;;;5.45;;
56242;SDS011;42155;53.096;23.226;2023-05-10T04:24:22;12.10;;;5.28;;
56242;SDS011;42155;53.096;23.226;2023-05-10T04:26:22;20.65;;;5.65;;
56242;SDS011;42155;53.096;23.226;2023-05-10T04:28:23;22.30;;;5.72;;
56242;SDS011;42155;53.096;23.226;2023-05-10T04:30:23;22.88;;;5.45;;
56242;SDS011;42155;53.096;23.226;2023-05-10T04:32:23;25.70;;;5.80;;
56242;SDS011;42155;53.096;23.226;2023-05-10T04:34:24;22.17;;;5.50;;
56242;SDS011;42155;53.096;23.226;2023-05-10T04:36:24;17.92;;;5.07;;
56242;SDS011;42155;53.096;23.226;2023-05-10T04:38:25;17.25;;;4.68;;
56242;SDS011;42155;53.096;23.226;2023-05-10T04:40:25;11.07;;;4.10;;
56242;SDS011;42155;53.096;23.226;2023-05-10T04:42:25;11.77;;;4.22;;
56242;SDS011;42155;53.096;23.226;2023-05-10T04:44:26;23.75;;;4.78;;
56242;SDS011;42155;53.096;23.226;2023-05-10T04:46:26;13.35;;;4.32;;
56242;SDS011;42155;53.096;23.226;2023-05-10T04:48:26;12.73;;;4.50;;
56242;SDS011;42155;53.096;23.226;2023-05-10T04:50:27;18.80;;;5.10;;
56242;SDS011;42155;53.096;23.226;2023-05-10T04:52:27;16.48;;;4.22;;
56242;SDS011;42155;53.096;23.226;2023-05-10T04:54:27;10.73;;;4.15;;
56242;SDS011;42155;53.096;23.226;2023-05-10T04:56:28;17.00;;;4.05;;
56242;SDS011;42155;53.096;23.226;2023-05-10T04:58:28;11.13;;;4.22;;
56242;SDS011;42155;53.096;23.226;2023-05-10T05:00:28;11.52;;;4.55;;
56242;SDS011;42155;53.096;23.226;2023-05-10T05:02:29;11.85;;;4.28;;
56242;SDS011;42155;53.096;23.226;2023-05-10T05:04:29;9.68;;;4.57;;
56242;SDS011;42155;53.096;23.226;2023-05-10T05:06:30;7.80;;;3.58;;
56242;SDS011;42155;53.096;23.226;2023-05-10T05:08:30;14.65;;;3.97;;
56242;SDS011;42155;53.096;23.226;2023-05-10T05:10:30;9.02;;;3.47;;
56242;SDS011;42155;53.096;23.226;2023-05-10T05:12:31;9.95;;;3.50;;
56242;SDS011;42155;53.096;23.226;2023-05-10T05:14:31;9.13;;;3.53;;
56242;SDS011;42155;53.096;23.226;2023-05-10T05:16:31;12.57;;;4.00;;
56242;SDS011;42155;53.096;23.226;2023-05-10T05:18:31;9.35;;;3.90;;
56242;SDS011;42155;53.096;23.226;2023-05-10T05:20:32;25.92;;;4.78;;
56242;SDS011;42155;53.096;23.226;2023-05-10T05:22:33;18.17;;;4.38;;
56242;SDS011;42155;53.096;23.226;2023-05-10T05:24:36;12.50;;;4.00;;
56242;SDS011;42155;53.096;23.226;2023-05-10T05:26:37;12.50;;;3.90;;
56242;SDS011;42155;53.096;23.226;2023-05-10T05:28:37;9.55;;;3.83;;
56242;SDS011;42155;53.096;23.226;2023-05-10T05:30:37;13.93;;;3.65;;
56242;SDS011;42155;53.096;23.226;2023-05-10T05:32:38;12.18;;;3.53;;
56242;SDS011;42155;53.096;23.226;2023-05-10T05:34:38;8.77;;;3.53;;
56242;SDS011;42155;53.096;23.226;2023-05-10T05:36:38;7.80;;;3.60;;
56242;SDS011;42155;53.096;23.226;2023-05-10T05:38:39;12.75;;;4.03;;
56242;SDS011;42155;53.096;23.226;2023-05-10T05:40:39;9.43;;;4.00;;
56242;SDS011;42155;53.096;23.226;2023-05-10T05:42:39;6.00;;;2.95;;
56242;SDS011;42155;53.096;23.226;2023-05-10T05:44:40;11.70;;;3.50;;
56242;SDS011;42155;53.096;23.226;2023-05-10T05:46:40;16.25;;;3.30;;
56242;SDS011;42155;53.096;23.226;2023-05-10T05:48:40;13.32;;;3.28;;
56242;SDS011;42155;53.096;23.226;2023-05-10T05:50:41;10.52;;;3.10;;
56242;SDS011;42155;53.096;23.226;2023-05-10T05:52:41;8.82;;;2.80;;
56242;SDS011;42155;53.096;23.226;2023-05-10T05:54:41;6.72;;;2.70;;
56242;SDS011;42155;53.096;23.226;2023-05-10T05:56:42;7.47;;;2.80;;
56242;SDS011;42155;53.096;23.226;2023-05-10T05:58:42;7.43;;;2.80;;
56242;SDS011;42155;53.096;23.226;2023-05-10T06:00:42;11.30;;;2.83;;
56242;SDS011;42155;53.096;23.226;2023-05-10T06:02:43;9.65;;;2.72;;
56242;SDS011;42155;53.096;23.226;2023-05-10T06:04:43;7.05;;;3.08;;
56242;SDS011;42155;53.096;23.226;2023-05-10T06:06:43;12.45;;;2.83;;
56242;SDS011;42155;53.096;23.226;2023-05-10T06:08:44;8.07;;;2.55;;
56242;SDS011;42155;53.096;23.226;2023-05-10T06:10:44;7.75;;;3.00;;
56242;SDS011;42155;53.096;23.226;2023-05-10T06:12:45;7.50;;;3.00;;
56242;SDS011;42155;53.096;23.226;2023-05-10T06:14:45;6.32;;;2.60;;
56242;SDS011;42155;53.096;23.226;2023-05-10T06:16:45;8.00;;;2.50;;
56242;SDS011;42155;53.096;23.226;2023-05-10T06:18:46;8.65;;;2.92;;
56242;SDS011;42155;53.096;23.226;2023-05-10T06:20:46;8.50;;;3.35;;
56242;SDS011;42155;53.096;23.226;2023-05-10T06:22:47;6.28;;;3.05;;
56242;SDS011;42155;53.096;23.226;2023-05-10T06:24:47;5.85;;;2.53;;
56242;SDS011;42155;53.096;23.226;2023-05-10T06:26:48;12.40;;;3.10;;
56242;SDS011;42155;53.096;23.226;2023-05-10T06:28:48;8.68;;;2.70;;
56242;SDS011;42155;53.096;23.226;2023-05-10T06:30:48;6.28;;;2.58;;
56242;SDS011;42155;53.096;23.226;2023-05-10T06:32:49;5.22;;;2.40;;
56242;SDS011;42155;53.096;23.226;2023-05-10T06:34:49;11.30;;;2.72;;
56242;SDS011;42155;53.096;23.226;2023-05-10T06:36:49;7.95;;;2.65;;
56242;SDS011;42155;53.096;23.226;2023-05-10T06:38:50;7.13;;;2.75;;
56242;SDS011;42155;53.096;23.226;2023-05-10T06:40:50;12.00;;;3.58;;
56242;SDS011;42155;53.096;23.226;2023-05-10T06:42:50;6.22;;;2.58;;
56242;SDS011;42155;53.096;23.226;2023-05-10T06:44:51;6.75;;;2.47;;
56242;SDS011;42155;53.096;23.226;2023-05-10T06:46:51;6.18;;;2.55;;
56242;SDS011;42155;53.096;23.226;2023-05-10T06:48:51;6.53;;;2.80;;
56242;SDS011;42155;53.096;23.226;2023-05-10T06:50:52;6.78;;;1.83;;
56242;SDS011;42155;53.096;23.226;2023-05-10T06:52:52;3.40;;;2.00;;
56242;SDS011;42155;53.096;23.226;2023-05-10T06:54:52;6.75;;;2.47;;
56242;SDS011;42155;53.096;23.226;2023-05-10T06:56:53;5.72;;;2.28;;
56242;SDS011;42155;53.096;23.226;2023-05-10T06:58:53;6.55;;;1.80;;
56242;SDS011;42155;53.096;23.226;2023-05-10T07:00:53;4.80;;;2.10;;
56242;SDS011;42155;53.096;23.226;2023-05-10T07:02:54;4.38;;;2.30;;
56242;SDS011;42155;53.096;23.226;2023-05-10T07:04:54;5.20;;;2.35;;
56242;SDS011;42155;53.096;23.226;2023-05-10T07:06:54;3.42;;;2.13;;
56242;SDS011;42155;53.096;23.226;2023-05-10T07:08:54;4.90;;;2.20;;
56242;SDS011;42155;53.096;23.226;2023-05-10T07:11:04;9.85;;;2.35;;
56242;SDS011;42155;53.096;23.226;2023-05-10T07:13:05;5.28;;;2.03;;
56242;SDS011;42155;53.096;23.226;2023-05-10T07:15:06;3.85;;;2.10;;
56242;SDS011;42155;53.096;23.226;2023-05-10T07:17:07;6.15;;;2.30;;
56242;SDS011;42155;53.096;23.226;2023-05-10T07:19:07;6.60;;;2.40;;
56242;SDS011;42155;53.096;23.226;2023-05-10T07:21:07;8.35;;;3.00;;
56242;SDS011;42155;53.096;23.226;2023-05-10T07:23:08;3.30;;;2.10;;
56242;SDS011;42155;53.096;23.226;2023-05-10T07:25:08;8.13;;;2.42;;
56242;SDS011;42155;53.096;23.226;2023-05-10T07:27:09;5.30;;;2.15;;
56242;SDS011;42155;53.096;23.226;2023-05-10T07:29:09;4.85;;;2.10;;
56242;SDS011;42155;53.096;23.226;2023-05-10T07:31:09;8.02;;;1.92;;
56242;SDS011;42155;53.096;23.226;2023-05-10T07:33:10;4.82;;;2.10;;
56242;SDS011;42155;53.096;23.226;2023-05-10T07:35:12;4.28;;;2.20;;
56242;SDS011;42155;53.096;23.226;2023-05-10T07:37:13;8.68;;;4.30;;
56242;SDS011;42155;53.096;23.226;2023-05-10T07:39:13;9.65;;;4.80;;
56242;SDS011;42155;53.096;23.226;2023-05-10T07:41:13;7.20;;;3.10;;
56242;SDS011;42155;53.096;23.226;2023-05-10T07:43:14;6.45;;;2.60;;
56242;SDS011;42155;53.096;23.226;2023-05-10T07:45:14;6.45;;;2.30;;
56242;SDS011;42155;53.096;23.226;2023-05-10T07:47:14;6.53;;;3.10;;
56242;SDS011;42155;53.096;23.226;2023-05-10T07:49:15;11.55;;;5.60;;
56242;SDS011;42155;53.096;23.226;2023-05-10T07:51:15;10.73;;;3.60;;
56242;SDS011;42155;53.096;23.226;2023-05-10T07:53:16;7.10;;;2.40;;
56242;SDS011;42155;53.096;23.226;2023-05-10T07:55:17;5.20;;;2.00;;
56242;SDS011;42155;53.096;23.226;2023-05-10T07:57:18;6.55;;;2.20;;
56242;SDS011;42155;53.096;23.226;2023-05-10T07:59:18;4.78;;;1.90;;
56242;SDS011;42155;53.096;23.226;2023-05-10T08:01:19;3.88;;;1.92;;
56242;SDS011;42155;53.096;23.226;2023-05-10T08:03:20;7.63;;;2.40;;
56242;SDS011;42155;53.096;23.226;2023-05-10T08:05:20;3.63;;;2.10;;
56242;SDS011;42155;53.096;23.226;2023-05-10T08:07:21;7.20;;;2.38;;
56242;SDS011;42155;53.096;23.226;2023-05-10T08:09:21;6.05;;;2.65;;
56242;SDS011;42155;53.096;23.226;2023-05-10T08:11:22;6.13;;;1.80;;
56242;SDS011;42155;53.096;23.226;2023-05-10T08:13:22;6.07;;;2.25;;
56242;SDS011;42155;53.096;23.226;2023-05-10T08:15:23;5.07;;;2.15;;
56242;SDS011;42155;53.096;23.226;2023-05-10T08:17:23;4.88;;;1.70;;
56242;SDS011;42155;53.096;23.226;2023-05-10T08:19:23;3.90;;;2.20;;
56242;SDS011;42155;53.096;23.226;2023-05-10T08:21:24;3.67;;;2.00;;
56242;SDS011;42155;53.096;23.226;2023-05-10T08:23:24;6.20;;;2.10;;
56242;SDS011;42155;53.096;23.226;2023-05-10T08:25:25;7.00;;;2.10;;
56242;SDS011;42155;53.096;23.226;2023-05-10T08:27:25;7.10;;;2.42;;
56242;SDS011;42155;53.096;23.226;2023-05-10T08:29:25;5.43;;;2.25;;
56242;SDS011;42155;53.096;23.226;2023-05-10T08:31:26;2.92;;;2.08;;
56242;SDS011;42155;53.096;23.226;2023-05-10T08:33:26;10.35;;;2.50;;
56242;SDS011;42155;53.096;23.226;2023-05-10T08:35:26;5.50;;;2.28;;
56242;SDS011;42155;53.096;23.226;2023-05-10T08:37:29;5.05;;;1.98;;
56242;SDS011;42155;53.096;23.226;2023-05-10T08:39:33;4.28;;;1.70;;
56242;SDS011;42155;53.096;23.226;2023-05-10T08:41:34;8.38;;;2.30;;
56242;SDS011;42155;53.096;23.226;2023-05-10T08:43:37;6.60;;;2.03;;
56242;SDS011;42155;53.096;23.226;2023-05-10T08:45:39;8.48;;;2.50;;
56242;SDS011;42155;53.096;23.226;2023-05-10T08:47:43;4.15;;;2.08;;
56242;SDS011;42155;53.096;23.226;2023-05-10T08:49:44;6.72;;;2.15;;
56242;SDS011;42155;53.096;23.226;2023-05-10T08:51:49;5.25;;;2.17;;
56242;SDS011;42155;53.096;23.226;2023-05-10T08:53:52;4.97;;;1.77;;
56242;SDS011;42155;53.096;23.226;2023-05-10T08:55:52;6.90;;;2.50;;
56242;SDS011;42155;53.096;23.226;2023-05-10T08:57:53;4.90;;;2.10;;
56242;SDS011;42155;53.096;23.226;2023-05-10T08:59:54;5.05;;;2.30;;
56242;SDS011;42155;53.096;23.226;2023-05-10T09:01:55;4.78;;;1.90;;
56242;SDS011;42155;53.096;23.226;2023-05-10T09:03:57;5.88;;;1.70;;
56242;SDS011;42155;53.096;23.226;2023-05-10T09:05:58;3.80;;;1.67;;
56242;SDS011;42155;53.096;23.226;2023-05-10T09:07:58;6.10;;;2.42;;
56242;SDS011;42155;53.096;23.226;2023-05-10T09:09:59;4.50;;;1.90;;
56242;SDS011;42155;53.096;23.226;2023-05-10T09:11:59;6.32;;;2.00;;
56242;SDS011;42155;53.096;23.226;2023-05-10T09:14:00;5.88;;;2.30;;
56242;SDS011;42155;53.096;23.226;2023-05-10T09:16:02;4.45;;;1.70;;
56242;SDS011;42155;53.096;23.226;2023-05-10T09:18:03;4.68;;;1.90;;
56242;SDS011;42155;53.096;23.226;2023-05-10T09:20:04;7.53;;;2.17;;
56242;SDS011;42155;53.096;23.226;2023-05-10T09:22:05;4.85;;;1.90;;
56242;SDS011;42155;53.096;23.226;2023-05-10T09:24:06;4.63;;;1.90;;
56242;SDS011;42155;53.096;23.226;2023-05-10T09:26:07;4.57;;;2.00;;
56242;SDS011;42155;53.096;23.226;2023-05-10T09:28:08;3.10;;;1.98;;
56242;SDS011;42155;53.096;23.226;2023-05-10T09:30:08;2.85;;;1.90;;
56242;SDS011;42155;53.096;23.226;2023-05-10T09:32:09;3.50;;;1.80;;
56242;SDS011;42155;53.096;23.226;2023-05-10T09:34:09;4.28;;;1.92;;
56242;SDS011;42155;53.096;23.226;2023-05-10T09:36:10;5.28;;;1.80;;
56242;SDS011;42155;53.096;23.226;2023-05-10T09:38:10;3.63;;;1.88;;
56242;SDS011;42155;53.096;23.226;2023-05-10T09:40:11;6.68;;;1.98;;
56242;SDS011;42155;53.096;23.226;2023-05-10T09:42:13;3.67;;;2.00;;
56242;SDS011;42155;53.096;23.226;2023-05-10T09:44:18;4.68;;;1.70;;
56242;SDS011;42155;53.096;23.226;2023-05-10T09:46:18;6.07;;;2.35;;
56242;SDS011;42155;53.096;23.226;2023-05-10T09:48:18;3.60;;;2.00;;
56242;SDS011;42155;53.096;23.226;2023-05-10T09:50:24;5.07;;;2.10;;
56242;SDS011;42155;53.096;23.226;2023-05-10T09:52:25;7.65;;;2.20;;
56242;SDS011;42155;53.096;23.226;2023-05-10T09:54:25;4.45;;;2.50;;
56242;SDS011;42155;53.096;23.226;2023-05-10T09:56:32;7.65;;;2.10;;
56242;SDS011;42155;53.096;23.226;2023-05-10T09:58:35;5.93;;;2.00;;
56242;SDS011;42155;53.096;23.226;2023-05-10T10:00:37;6.88;;;1.90;;
56242;SDS011;42155;53.096;23.226;2023-05-10T10:02:48;6.07;;;1.95;;
56242;SDS011;42155;53.096;23.226;2023-05-10T10:04:55;6.07;;;2.08;;
56242;SDS011;42155;53.096;23.226;2023-05-10T10:06:59;7.82;;;2.38;;
56242;SDS011;42155;53.096;23.226;2023-05-10T10:09:01;4.28;;;2.35;;
56242;SDS011;42155;53.096;23.226;2023-05-10T10:11:01;5.05;;;2.30;;
56242;SDS011;42155;53.096;23.226;2023-05-10T10:13:02;5.13;;;2.00;;
56242;SDS011;42155;53.096;23.226;2023-05-10T10:15:02;5.95;;;2.15;;
56242;SDS011;42155;53.096;23.226;2023-05-10T10:17:03;6.78;;;3.60;;
56242;SDS011;42155;53.096;23.226;2023-05-10T10:19:04;5.32;;;2.00;;
56242;SDS011;42155;53.096;23.226;2023-05-10T10:21:06;6.78;;;2.20;;
56242;SDS011;42155;53.096;23.226;2023-05-10T10:23:07;6.35;;;2.55;;
56242;SDS011;42155;53.096;23.226;2023-05-10T10:25:08;4.05;;;2.10;;
56242;SDS011;42155;53.096;23.226;2023-05-10T10:27:22;5.18;;;2.35;;
56242;SDS011;42155;53.096;23.226;2023-05-10T10:31:39;5.40;;;1.95;;
56242;SDS011;42155;53.096;23.226;2023-05-10T10:33:55;5.18;;;1.80;;
56242;SDS011;42155;53.096;23.226;2023-05-10T10:36:00;8.77;;;2.45;;
56242;SDS011;42155;53.096;23.226;2023-05-10T10:38:02;4.88;;;2.08;;
56242;SDS011;42155;53.096;23.226;2023-05-10T10:40:22;5.68;;;2.10;;
56242;SDS011;42155;53.096;23.226;2023-05-10T10:44:45;4.18;;;1.80;;
56242;SDS011;42155;53.096;23.226;2023-05-10T10:49:16;5.93;;;2.20;;
56242;SDS011;42155;53.096;23.226;2023-05-10T10:51:17;12.02;;;2.50;;
56242;SDS011;42155;53.096;23.226;2023-05-10T10:53:17;10.30;;;2.28;;
56242;SDS011;42155;53.096;23.226;2023-05-10T10:55:18;6.53;;;2.10;;
56242;SDS011;42155;53.096;23.226;2023-05-10T10:57:20;8.10;;;1.98;;
56242;SDS011;42155;53.096;23.226;2023-05-10T10:59:26;6.53;;;1.75;;
56242;SDS011;42155;53.096;23.226;2023-05-10T11:01:27;4.82;;;2.00;;
56242;SDS011;42155;53.096;23.226;2023-05-10T11:03:33;4.78;;;2.03;;
56242;SDS011;42155;53.096;23.226;2023-05-10T11:07:50;4.50;;;2.00;;
56242;SDS011;42155;53.096;23.226;2023-05-10T11:10:03;6.40;;;1.95;;
56242;SDS011;42155;53.096;23.226;2023-05-10T11:12:07;4.40;;;2.10;;
56242;SDS011;42155;53.096;23.226;2023-05-10T11:14:08;3.05;;;1.88;;
56242;SDS011;42155;53.096;23.226;2023-05-10T11:16:15;3.95;;;1.80;;
56242;SDS011;42155;53.096;23.226;2023-05-10T11:18:28;20.67;;;4.03;;
56242;SDS011;42155;53.096;23.226;2023-05-10T11:20:33;11.82;;;3.15;;
56242;SDS011;42155;53.096;23.226;2023-05-10T11:22:51;4.82;;;2.28;;
56242;SDS011;42155;53.096;23.226;2023-05-10T11:24:56;7.03;;;2.30;;
56242;SDS011;42155;53.096;23.226;2023-05-10T11:26:56;8.35;;;2.10;;
56242;SDS011;42155;53.096;23.226;2023-05-10T11:28:57;6.32;;;2.00;;
56242;SDS011;42155;53.096;23.226;2023-05-10T11:30:58;4.35;;;2.20;;
56242;SDS011;42155;53.096;23.226;2023-05-10T11:32:58;8.55;;;2.08;;
56242;SDS011;42155;53.096;23.226;2023-05-10T11:34:58;8.60;;;2.13;;
56242;SDS011;42155;53.096;23.226;2023-05-10T11:36:59;5.00;;;2.35;;
56242;SDS011;42155;53.096;23.226;2023-05-10T11:38:59;5.72;;;2.60;;
56242;SDS011;42155;53.096;23.226;2023-05-10T11:41:00;8.70;;;2.38;;
56242;SDS011;42155;53.096;23.226;2023-05-10T11:43:02;53.00;;;6.50;;
56242;SDS011;42155;53.096;23.226;2023-05-10T11:45:03;3.70;;;2.13;;
56242;SDS011;42155;53.096;23.226;2023-05-10T11:47:04;5.07;;;2.50;;
56242;SDS011;42155;53.096;23.226;2023-05-10T11:49:05;5.28;;;2.80;;
56242;SDS011;42155;53.096;23.226;2023-05-10T11:51:07;3.90;;;2.00;;
56242;SDS011;42155;53.096;23.226;2023-05-10T11:53:09;3.92;;;1.95;;
56242;SDS011;42155;53.096;23.226;2023-05-10T11:55:09;4.40;;;1.95;;
56242;SDS011;42155;53.096;23.226;2023-05-10T11:57:10;5.35;;;2.00;;
56242;SDS011;42155;53.096;23.226;2023-05-10T11:59:10;6.63;;;2.30;;
56242;SDS011;42155;53.096;23.226;2023-05-10T12:01:10;4.50;;;2.17;;
56242;SDS011;42155;53.096;23.226;2023-05-10T12:03:11;3.97;;;1.98;;
56242;SDS011;42155;53.096;23.226;2023-05-10T12:05:11;7.05;;;2.60;;
56242;SDS011;42155;53.096;23.226;2023-05-10T12:07:13;8.52;;;2.72;;
56242;SDS011;42155;53.096;23.226;2023-05-10T12:09:13;4.03;;;1.90;;
56242;SDS011;42155;53.096;23.226;2023-05-10T12:11:14;15.45;;;2.72;;
56242;SDS011;42155;53.096;23.226;2023-05-10T12:13:14;3.20;;;2.03;;
56242;SDS011;42155;53.096;23.226;2023-05-10T12:17:19;6.70;;;2.83;;
56242;SDS011;42155;53.096;23.226;2023-05-10T12:19:19;5.95;;;2.53;;
56242;SDS011;42155;53.096;23.226;2023-05-10T12:21:20;4.32;;;1.80;;
56242;SDS011;42155;53.096;23.226;2023-05-10T12:23:21;7.07;;;2.65;;